Time;durP1;ratioP1;P1;durP2;ratioP2;P2;SDS_P1;SDS_P2;PMS_P1;PMS_P2;Temp;Humidity;BMP_temperature;BMP_pressure;BME280_temperature;BME280_humidity;BME280_pressure;Samples;Min_cycle;Max_cycle;Signal;HPM_P1;HPM_P2
2021/01/04 11:21:13;;;;;;;;;;;;;;;8.06;100.00;92481.66;4496484;28;19955;-89
2021/01/04 11:23:39;;;;;;;;;;;;;;;7.88;100.00;92460.94;5033445;28;19925;-89
2021/01/04 11:26:07;;;;;;;;;;;;;;;8.04;100.00;92466.50;5032558;28;20386;-89
2021/01/04 11:28:33;;;;;;;;;;;;;;;7.99;100.00;92451.81;5032945;28;19967;-88
2021/01/04 11:30:59;;;;;;;;;;;;;;;7.95;100.00;92445.56;5033230;28;19967;-88
2021/01/04 11:33:26;;;;;;;;;;;;;;;8.05;100.00;92434.06;5033100;28;19921;-88
2021/01/04 11:35:52;;;;;;;;;;;;;;;7.95;100.00;92422.53;5034058;28;19968;-87
2021/01/04 11:38:19;;;;;;;;;;;;;;;7.89;100.00;92420.84;5032837;28;19924;-89
2021/01/04 11:40:46;;;;;;;;;;;;;;;7.83;100.00;92406.34;5032946;28;19921;-88
2021/01/04 11:43:12;;;;;;;;;;;;;;;7.71;100.00;92384.03;5033179;28;19921;-90
2021/01/04 11:45:38;;;;;;;;;;;;;;;7.69;100.00;92370.66;5032829;28;19967;-90
2021/01/04 11:48:05;;;;;;;;;;;;;;;7.70;100.00;92364.59;5032895;28;19968;-89
2021/01/04 11:50:31;;;;;;;;;;;;;;;7.65;100.00;92346.56;5032801;28;19921;-88
2021/01/04 11:52:57;;;;;;;;;;;;;;;7.65;100.00;92335.53;5032240;28;19921;-88
2021/01/04 11:55:24;;;;;;;;;;;;;;;7.75;100.00;92331.50;5032610;28;19921;-88
2021/01/04 11:57:50;;;;;;;;;;;;;;;7.95;100.00;92335.59;5032728;28;19974;-89
2021/01/04 12:00:19;;;;;;;;;;;;;;;8.18;100.00;92334.13;5030447;28;19917;-89
2021/01/04 12:02:45;;;;;;;;;;;;;;;8.34;100.00;92339.66;5031419;28;19967;-89
2021/01/04 12:05:13;;;;;;;;;;;;;;;8.45;100.00;92338.91;5032594;28;19921;-89
2021/01/04 12:07:39;;;;;;;;;;;;;;;8.54;100.00;92337.66;5025833;28;19921;-88
2021/01/04 12:10:06;;;;;;;;;;;;;;;8.67;100.00;92335.88;5032301;28;20390;-89
2021/01/04 12:12:33;;;;;;;;;;;;;;;8.66;100.00;92324.84;5032700;28;19921;-89
2021/01/04 12:18:03;;;;;;;;;;;;;;;8.71;100.00;92326.78;5033906;28;19923;-88
2021/01/04 12:20:29;;;;;;;;;;;;;;;8.55;100.00;92310.25;5024727;28;20355;-88
2021/01/04 12:22:55;;;;;;;;;;;;;;;8.67;100.00;92311.06;5033185;28;19925;-87
2021/01/04 12:25:21;;;;;;;;;;;;;;;8.63;100.00;92324.53;5033255;28;19921;-87
2021/01/04 12:27:48;;;;;;;;;;;;;;;8.61;100.00;92316.28;5033996;28;19970;-88
2021/01/04 12:30:15;;;;;;;;;;;;;;;8.59;100.00;92318.28;5034321;28;19928;-87
2021/01/04 12:35:44;;;;;;;;;;;;;;;8.49;100.00;92311.09;5053467;28;19919;-88
2021/01/04 12:38:10;;;;;;;;;;;;;;;8.51;100.00;92319.34;5052691;28;20274;-87
2021/01/04 12:40:36;;;;;;;;;;;;;;;8.39;100.00;92314.19;5056761;28;19920;-88
2021/01/04 12:43:04;;;;;;;;;;;;;;;8.43;100.00;92307.66;5056130;28;19924;-88
2021/01/04 12:45:30;;;;;;;;;;;;;;;8.47;100.00;92300.31;5055825;28;19990;-86
2021/01/04 12:47:56;;;;;;;;;;;;;;;8.54;100.00;92306.94;5054566;28;19924;-86
2021/01/04 12:50:22;;;;;;;;;;;;;;;8.61;100.00;92295.81;5054424;28;19924;-87
2021/01/04 12:52:49;;;;;;;;;;;;;;;8.51;100.00;92302.22;5056496;28;19920;-87
2021/01/04 12:55:17;;;;;;;;;;;;;;;8.13;100.00;92300.75;5052661;28;19932;-87
2021/01/04 12:57:43;;;;;;;;;;;;;;;8.06;100.00;92294.94;5036541;28;19925;-87
2021/01/04 13:00:10;;;;;;;;;;;;;;;7.95;100.00;92296.44;5036603;28;19983;-87
2021/01/04 13:02:36;;;;;;;;;;;;;;;7.85;100.00;92292.63;5036933;28;19921;-87
2021/01/04 13:05:03;;;;;;;;;;;;;;;7.72;100.00;92291.00;5035971;28;20394;-87
2021/01/04 13:07:29;;;;;;;;;;;;;;;7.84;100.00;92296.19;5036308;28;19928;-87
2021/01/04 13:09:55;;;;;;;;;;;;;;;8.10;100.00;92294.28;5035001;28;20016;-87
2021/01/04 13:12:21;;;;;;;;;;;;;;;7.81;100.00;92295.81;5034998;28;19921;-87
2021/01/04 13:14:47;;;;;;;;;;;;;;;7.82;100.00;92282.84;5034879;28;19925;-87
2021/01/04 13:17:14;;;;;;;;;;;;;;;8.04;100.00;92292.59;5035099;28;19928;-87
2021/01/04 13:19:40;;;;;;;;;;;;;;;8.23;100.00;92300.22;5034488;28;20405;-87
2021/01/04 13:22:06;;;;;;;;;;;;;;;8.36;100.00;92287.25;5035518;28;19983;-87
2021/01/04 13:24:32;;;;;;;;;;;;;;;8.45;100.00;92279.25;5036425;28;20356;-87
2021/01/04 13:27:02;;;;;;;;;;;;;;;8.46;100.00;92286.72;5041165;28;20303;-87
2021/01/04 13:29:29;;;;;;;;;;;;;;;8.39;100.00;92291.16;5038388;28;19921;-88
2021/01/04 13:34:46;;;;;;;;;;;;;;;8.01;100.00;92286.13;5002861;28;19921;-87
2021/01/04 13:37:14;;;;;;;;;;;;;;;7.99;100.00;92285.59;5029390;28;20024;-86
2021/01/04 13:39:40;;;;;;;;;;;;;;;8.20;100.00;92287.88;5057393;28;19979;-87
2021/01/04 13:42:07;;;;;;;;;;;;;;;8.28;100.00;92288.34;5057139;28;20000;-87
2021/01/04 13:44:33;;;;;;;;;;;;;;;8.34;100.00;92289.25;5056838;28;19967;-86
2021/01/04 13:47:00;;;;;;;;;;;;;;;8.34;100.00;92291.03;5057247;28;19983;-87
2021/01/04 13:49:26;;;;;;;;;;;;;;;8.28;100.00;92295.22;5042991;28;20268;-87
2021/01/04 13:51:53;;;;;;;;;;;;;;;8.23;100.00;92300.22;5036090;28;19917;-88
2021/01/04 13:54:19;;;;;;;;;;;;;;;8.19;100.00;92288.88;5036417;28;19987;-89
2021/01/04 13:56:46;;;;;;;;;;;;;;;8.15;100.00;92291.09;5035493;28;20363;-86
2021/01/04 13:59:12;;;;;;;;;;;;;;;8.14;100.00;92286.97;5033742;28;20351;-86
2021/01/04 14:01:38;;;;;;;;;;;;;;;8.19;100.00;92283.75;5033127;28;19923;-87
2021/01/04 14:04:05;;;;;;;;;;;;;;;8.23;100.00;92285.66;5033093;28;19917;-86
2021/01/04 14:06:37;;;;;;;;;;;;;;;8.24;100.00;92289.78;5033229;28;19917;-87
2021/01/04 14:09:04;;;;;;;;;;;;;;;8.28;100.00;92285.00;5034929;28;19917;-87
2021/01/04 14:11:30;;;;;;;;;;;;;;;8.29;100.00;92277.13;5053360;28;19962;-86
2021/01/04 14:13:56;;;;;;;;;;;;;;;8.29;100.00;92274.56;5053254;28;19917;-87
2021/01/04 14:16:23;;;;;;;;;;;;;;;8.25;100.00;92272.66;5053201;28;19920;-87
2021/01/04 14:18:50;;;;;;;;;;;;;;;8.22;100.00;92260.28;5053926;28;20011;-88
2021/01/04 14:21:18;;;;;;;;;;;;;;;7.47;100.00;92250.22;5053859;28;19998;-88
2021/01/04 14:23:44;;;;;;;;;;;;;;;7.72;100.00;92251.88;5055039;28;19946;-88
2021/01/04 14:26:11;;;;;;;;;;;;;;;7.84;100.00;92254.50;5053743;28;19917;-88
2021/01/04 14:31:40;;;;;;;;;;;;;;;7.26;100.00;92236.09;5055228;28;19947;-88
2021/01/04 14:34:08;;;;;;;;;;;;;;;7.30;100.00;92237.22;5054597;28;19917;-88
2021/01/04 14:36:34;;;;;;;;;;;;;;;7.49;100.00;92243.91;5052618;28;19925;-89
2021/01/04 14:39:00;;;;;;;;;;;;;;;7.65;100.00;92239.19;5054570;28;19923;-88
2021/01/04 14:41:27;;;;;;;;;;;;;;;7.73;100.00;92233.78;5054380;28;19917;-89
2021/01/04 14:43:54;;;;;;;;;;;;;;;7.77;100.00;92235.91;5055133;28;20026;-88
2021/01/04 14:46:21;;;;;;;;;;;;;;;7.86;100.00;92245.63;5054390;28;19916;-89
2021/01/04 14:48:47;;;;;;;;;;;;;;;7.75;100.00;92238.69;5054591;28;19955;-89
2021/01/04 14:51:15;;;;;;;;;;;;;;;7.37;100.00;92237.94;5054189;28;20290;-88
2021/01/04 14:53:42;;;;;;;;;;;;;;;7.25;100.00;92240.41;5055019;28;20011;-87
2021/01/04 14:56:08;;;;;;;;;;;;;;;7.06;100.00;92237.06;5043690;28;20259;-88
2021/01/04 14:58:36;;;;;;;;;;;;;;;6.91;100.00;92230.53;5034460;28;19971;-88
2021/01/04 15:01:02;;;;;;;;;;;;;;;6.76;100.00;92230.88;5034801;28;19917;-88
2021/01/04 15:03:28;;;;;;;;;;;;;;;6.94;100.00;92230.13;5035040;28;19963;-89
2021/01/04 15:05:54;;;;;;;;;;;;;;;7.00;100.00;92233.63;5034755;28;19917;-88
2021/01/04 15:08:20;;;;;;;;;;;;;;;6.87;100.00;92237.06;5035162;28;19924;-89
2021/01/04 15:10:46;;;;;;;;;;;;;;;6.93;100.00;92241.31;5033768;28;19923;-88
2021/01/04 15:13:12;;;;;;;;;;;;;;;7.04;100.00;92239.84;5034269;28;19916;-89
2021/01/04 15:15:39;;;;;;;;;;;;;;;7.03;100.00;92243.38;5036793;28;19917;-89
2021/01/04 15:18:05;;;;;;;;;;;;;;;7.02;100.00;92249.50;5034597;28;19925;-89
2021/01/04 15:20:31;;;;;;;;;;;;;;;7.00;100.00;92250.69;5034376;28;19917;-89
2021/01/04 15:22:58;;;;;;;;;;;;;;;7.16;100.00;92259.56;5033994;28;20259;-90
2021/01/04 15:25:24;;;;;;;;;;;;;;;7.29;100.00;92253.53;5033508;28;20355;-89
2021/01/04 15:27:50;;;;;;;;;;;;;;;7.38;100.00;92262.50;5033873;28;20425;-89
2021/01/04 15:30:17;;;;;;;;;;;;;;;7.51;100.00;92268.44;5032789;28;20244;-89
2021/01/04 15:32:43;;;;;;;;;;;;;;;7.59;100.00;92265.63;5036577;28;19951;-89
2021/01/04 15:35:10;;;;;;;;;;;;;;;7.65;100.00;92266.53;5045378;28;19924;-89
2021/01/04 15:37:37;;;;;;;;;;;;;;;7.68;100.00;92261.75;5035385;28;19917;-90
2021/01/04 15:40:03;;;;;;;;;;;;;;;7.59;100.00;92253.59;5035771;28;19917;-91
2021/01/04 15:42:29;;;;;;;;;;;;;;;7.62;100.00;92257.50;5034550;28;19917;-91
2021/01/04 15:44:55;;;;;;;;;;;;;;;7.65;100.00;92243.53;5052780;28;20291;-89
2021/01/04 15:47:21;;;;;;;;;;;;;;;7.68;100.00;92245.66;5053248;28;19939;-90
2021/01/04 15:49:48;;;;;;;;;;;;;;;7.69;100.00;92247.97;5053126;28;19917;-90
2021/01/04 15:52:14;;;;;;;;;;;;;;;7.69;100.00;92232.63;5053095;28;19917;-90
2021/01/04 15:54:42;;;;;;;;;;;;;;;7.65;100.00;92235.84;5053840;28;19924;-90
2021/01/04 15:57:08;;;;;;;;;;;;;;;7.39;100.00;92228.28;5033742;28;19921;-90
2021/01/04 15:59:34;;;;;;;;;;;;;;;7.17;100.00;92218.50;5033890;28;19923;-91
2021/01/04 16:02:00;;;;;;;;;;;;;;;7.17;100.00;92221.03;5033066;28;19917;-89
2021/01/04 16:04:28;;;;;;;;;;;;;;;7.19;100.00;92218.28;5033755;28;20271;-89
2021/01/04 16:06:56;;;;;;;;;;;;;;;7.27;100.00;92209.56;5032824;28;19917;-89
2021/01/04 16:09:23;;;;;;;;;;;;;;;7.31;100.00;92197.94;5034257;28;19975;-89
2021/01/04 16:11:52;;;;;;;;;;;;;;;7.18;100.00;92191.19;5033586;28;20347;-87
2021/01/04 16:14:18;;;;;;;;;;;;;;;6.88;100.00;92182.47;5035808;28;19916;-89
2021/01/04 16:16:44;;;;;;;;;;;;;;;6.74;100.00;92184.38;5037862;28;20348;-89
2021/01/04 16:19:11;;;;;;;;;;;;;;;6.52;100.00;92179.66;5036956;28;19924;-89
2021/01/04 16:21:37;;;;;;;;;;;;;;;6.43;100.00;92170.69;5037100;28;19917;-89
2021/01/04 16:24:06;;;;;;;;;;;;;;;6.25;100.00;92166.34;5036525;28;19917;-90
2021/01/04 16:26:32;;;;;;;;;;;;;;;6.29;100.00;92164.94;5036094;28;20319;-90
2021/01/04 16:28:58;;;;;;;;;;;;;;;6.31;100.00;92162.16;5036458;28;19972;-89
2021/01/04 16:31:25;;;;;;;;;;;;;;;6.33;100.00;92153.31;5037401;28;20390;-89
2021/01/04 16:33:52;;;;;;;;;;;;;;;6.30;100.00;92158.84;5036812;28;19917;-89
2021/01/04 16:36:19;;;;;;;;;;;;;;;6.40;100.00;92159.13;5037650;28;20007;-89
2021/01/04 16:38:45;;;;;;;;;;;;;;;6.64;100.00;92172.09;5036971;28;19917;-89
2021/01/04 16:41:16;;;;;;;;;;;;;;;6.81;100.00;92185.06;5037300;28;20355;-88
2021/01/04 16:43:42;;;;;;;;;;;;;;;6.96;100.00;92189.06;5037226;28;19925;-89
2021/01/04 16:46:09;;;;;;;;;;;;;;;7.09;100.00;92188.91;5036764;28;19921;-89
2021/01/04 16:48:40;;;;;;;;;;;;;;;7.21;100.00;92188.19;5037381;28;19917;-89
2021/01/04 16:51:06;;;;;;;;;;;;;;;7.30;100.00;92191.25;5037234;28;19928;-90
2021/01/04 16:53:32;;;;;;;;;;;;;;;7.36;100.00;92198.03;5036900;28;19917;-89
2021/01/04 16:55:58;;;;;;;;;;;;;;;7.40;100.00;92201.72;5036855;28;19917;-89
2021/01/04 16:58:25;;;;;;;;;;;;;;;7.45;100.00;92203.66;5037179;28;20267;-89
2021/01/04 17:00:51;;;;;;;;;;;;;;;7.46;100.00;92203.44;5036717;28;19917;-90
2021/01/04 17:03:17;;;;;;;;;;;;;;;7.45;100.00;92196.00;5036983;28;19963;-90
2021/01/04 17:05:43;;;;;;;;;;;;;;;7.50;100.00;92201.22;5036080;28;19924;-90
2021/01/04 17:08:09;;;;;;;;;;;;;;;7.46;100.00;92195.75;5036860;28;20393;-90
2021/01/04 17:10:35;;;;;;;;;;;;;;;7.47;100.00;92194.00;5036365;28;19928;-90
2021/01/04 17:13:17;;;;;;;;;;;;;;;7.47;100.00;92181.22;5037455;28;19917;-89
2021/01/04 17:15:46;;;;;;;;;;;;;;;7.42;100.00;92171.66;5036407;28;19971;-89
2021/01/04 17:18:12;;;;;;;;;;;;;;;7.24;100.00;92169.09;5036851;28;19963;-89
2021/01/04 17:20:38;;;;;;;;;;;;;;;6.83;100.00;92161.91;5047287;28;20397;-89
2021/01/04 17:23:04;;;;;;;;;;;;;;;6.43;100.00;92157.19;5042102;28;19917;-89
2021/01/04 17:25:30;;;;;;;;;;;;;;;6.35;100.00;92151.34;5035916;28;19924;-89
2021/01/04 17:27:58;;;;;;;;;;;;;;;6.20;100.00;92148.34;5036452;28;19921;-89
2021/01/04 17:30:24;;;;;;;;;;;;;;;6.18;100.00;92153.66;5036080;28;19963;-89
2021/01/04 17:33:05;;;;;;;;;;;;;;;6.17;100.00;92152.09;5036495;28;19917;-89
2021/01/04 17:35:33;;;;;;;;;;;;;;;6.20;100.00;92138.16;5036298;28;19923;-89
2021/01/04 17:37:59;;;;;;;;;;;;;;;6.14;100.00;92121.91;5036768;28;19975;-88
2021/01/04 17:40:25;;;;;;;;;;;;;;;6.17;100.00;92128.34;5035992;28;19917;-89
2021/01/04 17:42:51;;;;;;;;;;;;;;;6.19;100.00;92128.91;5036521;28;19916;-90
2021/01/04 17:45:17;;;;;;;;;;;;;;;6.25;100.00;92126.31;5035270;28;19917;-88
2021/01/04 17:47:44;;;;;;;;;;;;;;;6.37;100.00;92128.19;5031953;28;19963;-88
2021/01/04 17:50:11;;;;;;;;;;;;;;;6.46;100.00;92121.03;5035061;28;19940;-88
2021/01/04 17:52:39;;;;;;;;;;;;;;;6.22;100.00;92124.19;5034766;28;19924;-88
2021/01/04 17:55:05;;;;;;;;;;;;;;;6.06;100.00;92101.78;5037413;28;19924;-87
2021/01/04 17:57:31;;;;;;;;;;;;;;;5.91;100.00;92113.03;5055029;28;19916;-88
2021/01/04 17:59:57;;;;;;;;;;;;;;;5.91;100.00;92114.78;5054504;28;20417;-87
2021/01/04 18:02:23;;;;;;;;;;;;;;;5.88;100.00;92109.13;5054572;28;19960;-87
2021/01/04 18:04:50;;;;;;;;;;;;;;;6.01;100.00;92103.16;5040302;28;19917;-88
2021/01/04 18:07:16;;;;;;;;;;;;;;;6.08;100.00;92097.25;5034473;28;19923;-88
2021/01/04 18:09:44;;;;;;;;;;;;;;;6.27;100.00;92101.41;5035070;28;19917;-88
2021/01/04 18:12:10;;;;;;;;;;;;;;;6.47;100.00;92105.50;5034232;28;19923;-88
2021/01/04 18:14:38;;;;;;;;;;;;;;;6.60;100.00;92099.50;5034285;28;19978;-88
2021/01/04 18:17:04;;;;;;;;;;;;;;;6.68;100.00;92096.66;5034018;28;20024;-88
2021/01/04 18:19:30;;;;;;;;;;;;;;;6.70;100.00;92104.09;5033961;28;19917;-88
2021/01/04 18:21:56;;;;;;;;;;;;;;;6.80;100.00;92096.72;5034437;28;19928;-88
2021/01/04 18:24:22;;;;;;;;;;;;;;;6.89;100.00;92107.44;5035263;28;19971;-88
2021/01/04 18:26:49;;;;;;;;;;;;;;;6.92;100.00;92113.88;5035044;28;19921;-90
2021/01/04 18:29:15;;;;;;;;;;;;;;;6.99;100.00;92118.91;5035435;28;19924;-88
2021/01/04 18:31:43;;;;;;;;;;;;;;;7.02;100.00;92114.16;5035828;28;19916;-88
2021/01/04 18:34:09;;;;;;;;;;;;;;;7.06;100.00;92117.84;5034977;28;19921;-88
2021/01/04 18:36:36;;;;;;;;;;;;;;;7.08;100.00;92115.06;5033911;28;20027;-88
2021/01/04 18:39:04;;;;;;;;;;;;;;;7.09;100.00;92112.31;5034860;28;20359;-87
2021/01/04 18:41:31;;;;;;;;;;;;;;;7.06;100.00;92109.41;5033410;28;19917;-90
2021/01/04 18:43:58;;;;;;;;;;;;;;;6.98;100.00;92118.13;5033837;28;20335;-88
2021/01/04 18:46:27;;;;;;;;;;;;;;;6.98;100.00;92120.69;5034123;28;19921;-90
2021/01/04 18:48:53;;;;;;;;;;;;;;;6.91;100.00;92128.41;5033465;28;19967;-88
2021/01/04 18:51:23;;;;;;;;;;;;;;;6.92;100.00;92126.66;5033037;28;19917;-88
2021/01/04 18:53:49;;;;;;;;;;;;;;;7.00;100.00;92125.59;5033022;28;19917;-88
2021/01/04 18:56:15;;;;;;;;;;;;;;;7.04;100.00;92134.38;5032364;28;19928;-88
2021/01/04 18:58:41;;;;;;;;;;;;;;;7.08;100.00;92138.84;5032707;28;20363;-88
2021/01/04 19:01:12;;;;;;;;;;;;;;;7.09;100.00;92140.38;5032615;28;21488;-88
2021/01/04 19:03:38;;;;;;;;;;;;;;;7.08;100.00;92140.59;5033356;28;19924;-87
2021/01/04 19:06:04;;;;;;;;;;;;;;;7.09;100.00;92131.97;5032719;28;19963;-88
2021/01/04 19:08:30;;;;;;;;;;;;;;;7.11;100.00;92126.63;5033053;28;19963;-89
2021/01/04 19:10:56;;;;;;;;;;;;;;;7.14;100.00;92121.88;5032718;28;20355;-88
2021/01/04 19:13:22;;;;;;;;;;;;;;;7.15;100.00;92127.75;5032669;28;20363;-89
2021/01/04 19:15:48;;;;;;;;;;;;;;;7.17;100.00;92121.44;5033075;28;19917;-88
2021/01/04 19:18:15;;;;;;;;;;;;;;;7.17;100.00;92113.78;5032718;28;19921;-87
2021/01/04 19:20:42;;;;;;;;;;;;;;;7.19;100.00;92118.69;5044570;28;19921;-87
2021/01/04 19:23:08;;;;;;;;;;;;;;;7.19;100.00;92116.88;5052729;28;19923;-88
2021/01/04 19:25:34;;;;;;;;;;;;;;;7.22;100.00;92118.25;5052605;28;19917;-87
2021/01/04 19:28:00;;;;;;;;;;;;;;;7.22;100.00;92115.69;5053982;28;19917;-87
2021/01/04 19:30:26;;;;;;;;;;;;;;;7.20;100.00;92115.13;5052849;28;19917;-87
2021/01/04 19:32:52;;;;;;;;;;;;;;;7.18;100.00;92120.44;5052642;28;19917;-88
2021/01/04 19:35:20;;;;;;;;;;;;;;;7.17;100.00;92120.69;5043727;28;19921;-88
2021/01/04 19:37:49;;;;;;;;;;;;;;;7.16;100.00;92114.00;5032994;28;19924;-88
2021/01/04 19:40:15;;;;;;;;;;;;;;;7.16;100.00;92129.31;5033727;28;20447;-88
2021/01/04 19:42:44;;;;;;;;;;;;;;;7.12;100.00;92130.75;5034436;28;19939;-87
2021/01/04 19:45:12;;;;;;;;;;;;;;;7.04;100.00;92130.03;5033538;28;19943;-88
2021/01/04 19:47:38;;;;;;;;;;;;;;;7.04;100.00;92124.16;5033785;28;19917;-88
2021/01/04 19:50:05;;;;;;;;;;;;;;;7.00;100.00;92120.47;5033962;28;19921;-88
2021/01/04 19:52:32;;;;;;;;;;;;;;;6.94;100.00;92111.88;5033998;28;20369;-88
2021/01/04 19:54:58;;;;;;;;;;;;;;;6.95;100.00;92106.56;5034465;28;19916;-88
2021/01/04 19:57:24;;;;;;;;;;;;;;;6.91;100.00;92113.09;5034595;28;20271;-88
2021/01/04 19:59:51;;;;;;;;;;;;;;;6.92;100.00;92114.69;5033602;28;19917;-88
2021/01/04 20:02:17;;;;;;;;;;;;;;;6.88;100.00;92103.31;5033659;28;20003;-88
2021/01/04 20:04:43;;;;;;;;;;;;;;;6.79;100.00;92105.38;5033597;28;19947;-88
2021/01/04 20:07:10;;;;;;;;;;;;;;;6.76;100.00;92100.69;5033713;28;19917;-88
2021/01/04 20:09:37;;;;;;;;;;;;;;;6.76;100.00;92107.59;5034829;28;19920;-88
2021/01/04 20:12:03;;;;;;;;;;;;;;;6.73;100.00;92105.44;5034019;28;20355;-88
2021/01/04 20:14:30;;;;;;;;;;;;;;;6.73;100.00;92103.69;5034015;28;19923;-88
2021/01/04 20:16:56;;;;;;;;;;;;;;;6.78;100.00;92108.16;5033258;28;19921;-88
2021/01/04 20:19:23;;;;;;;;;;;;;;;6.77;100.00;92104.81;5033470;28;19921;-88
2021/01/04 20:21:49;;;;;;;;;;;;;;;6.76;100.00;92115.25;5035870;28;19924;-88
2021/01/04 20:24:16;;;;;;;;;;;;;;;6.76;100.00;92131.31;5052907;28;20355;-88
2021/01/04 20:26:44;;;;;;;;;;;;;;;6.80;100.00;92134.22;5036162;28;20275;-88
2021/01/04 20:29:11;;;;;;;;;;;;;;;6.75;100.00;92131.56;5033506;28;19916;-88
2021/01/04 20:31:38;;;;;;;;;;;;;;;6.74;100.00;92118.00;5032405;28;20287;-88
2021/01/04 20:34:05;;;;;;;;;;;;;;;6.74;100.00;92112.91;5032453;28;19962;-88
2021/01/04 20:36:31;;;;;;;;;;;;;;;6.71;100.00;92113.31;5032280;28;19917;-88
2021/01/04 20:38:57;;;;;;;;;;;;;;;6.68;100.00;92113.75;5031990;28;19917;-88
2021/01/04 20:41:23;;;;;;;;;;;;;;;6.65;100.00;92114.97;5032128;28;20405;-88
2021/01/04 20:43:50;;;;;;;;;;;;;;;6.65;100.00;92114.16;5031712;28;20359;-88
2021/01/04 20:46:17;;;;;;;;;;;;;;;6.61;100.00;92118.16;5031924;28;19947;-89
2021/01/04 20:48:43;;;;;;;;;;;;;;;6.65;100.00;92121.81;5032130;28;19917;-89
2021/01/04 20:51:09;;;;;;;;;;;;;;;6.64;100.00;92115.16;5032045;28;19944;-88
2021/01/04 20:53:36;;;;;;;;;;;;;;;6.65;100.00;92116.72;5031801;28;19917;-88
2021/01/04 20:56:03;;;;;;;;;;;;;;;6.65;100.00;92114.16;5021268;28;19924;-88
2021/01/04 20:58:29;;;;;;;;;;;;;;;6.62;100.00;92112.81;5019837;28;19975;-88
2021/01/04 21:00:57;;;;;;;;;;;;;;;6.64;100.00;92110.84;5035464;28;19916;-88
2021/01/04 21:03:25;;;;;;;;;;;;;;;6.62;100.00;92112.81;5035523;28;19916;-89
2021/01/04 21:05:52;;;;;;;;;;;;;;;6.61;100.00;92106.16;5035380;28;19917;-88
2021/01/04 21:08:18;;;;;;;;;;;;;;;6.62;100.00;92109.50;5035049;28;20008;-88
2021/01/04 21:10:44;;;;;;;;;;;;;;;6.60;100.00;92117.38;5035137;28;19924;-88
2021/01/04 21:13:10;;;;;;;;;;;;;;;6.60;100.00;92112.25;5035306;28;20014;-88
2021/01/04 21:15:36;;;;;;;;;;;;;;;6.60;100.00;92107.16;5036761;28;19963;-88
2021/01/04 21:18:07;;;;;;;;;;;;;;;6.58;100.00;92114.25;5036421;28;19921;-88
2021/01/04 21:20:34;;;;;;;;;;;;;;;6.55;100.00;92112.91;5035699;28;19916;-88
2021/01/04 21:23:00;;;;;;;;;;;;;;;6.55;100.00;92107.00;5035663;28;19970;-88
2021/01/04 21:25:26;;;;;;;;;;;;;;;6.56;100.00;92108.56;5034911;28;19917;-88
2021/01/04 21:27:52;;;;;;;;;;;;;;;6.57;100.00;92107.56;5034729;28;19963;-88
2021/01/04 21:30:18;;;;;;;;;;;;;;;6.53;100.00;92106.47;5034946;28;19939;-88
2021/01/04 21:32:44;;;;;;;;;;;;;;;6.59;100.00;92105.59;5034898;28;19917;-88
2021/01/04 21:35:11;;;;;;;;;;;;;;;6.61;100.00;92106.16;5034909;28;19917;-88
2021/01/04 21:37:37;;;;;;;;;;;;;;;6.59;100.00;92103.06;5034947;28;19931;-88
2021/01/04 21:40:04;;;;;;;;;;;;;;;6.62;100.00;92115.38;5035010;28;19923;-88
2021/01/04 21:42:30;;;;;;;;;;;;;;;6.64;100.00;92113.41;5035158;28;19917;-88
2021/01/04 21:44:56;;;;;;;;;;;;;;;6.62;100.00;92123.03;5034879;28;19986;-88
2021/01/04 21:47:22;;;;;;;;;;;;;;;6.63;100.00;92118.72;5035107;28;19921;-89
2021/01/04 21:49:48;;;;;;;;;;;;;;;6.59;100.00;92113.25;5034701;28;19917;-88
2021/01/04 21:52:15;;;;;;;;;;;;;;;6.59;100.00;92117.56;5034507;28;20240;-88
2021/01/04 21:54:41;;;;;;;;;;;;;;;6.58;100.00;92110.91;5034241;28;19952;-88
2021/01/04 21:57:07;;;;;;;;;;;;;;;6.53;100.00;92114.88;5034159;28;19917;-89
2021/01/04 21:59:33;;;;;;;;;;;;;;;6.51;100.00;92108.41;5034416;28;19917;-88
2021/01/04 22:02:00;;;;;;;;;;;;;;;6.46;100.00;92109.06;5034254;28;19928;-88
2021/01/04 22:04:27;;;;;;;;;;;;;;;6.49;100.00;92110.41;5034409;28;19917;-88
2021/01/04 22:06:53;;;;;;;;;;;;;;;6.51;100.00;92110.97;5033986;28;19916;-88
2021/01/04 22:09:21;;;;;;;;;;;;;;;6.52;100.00;92115.88;5034684;28;20266;-88
2021/01/04 22:11:48;;;;;;;;;;;;;;;6.49;100.00;92107.88;5034446;28;19917;-90
2021/01/04 22:14:14;;;;;;;;;;;;;;;6.45;100.00;92114.38;5034140;28;19924;-90
2021/01/04 22:16:40;;;;;;;;;;;;;;;6.37;100.00;92120.53;5013270;28;20347;-88
2021/01/04 22:19:06;;;;;;;;;;;;;;;6.31;100.00;92131.56;5034259;28;19917;-88
2021/01/04 22:21:32;;;;;;;;;;;;;;;6.29;100.00;92121.56;5034696;28;19963;-89
2021/01/04 22:23:58;;;;;;;;;;;;;;;6.27;100.00;92121.81;5033679;28;19916;-88
2021/01/04 22:26:26;;;;;;;;;;;;;;;6.24;100.00;92123.97;5033663;28;19917;-88
2021/01/04 22:28:52;;;;;;;;;;;;;;;6.14;100.00;92132.88;5033728;28;19988;-88
2021/01/04 22:31:19;;;;;;;;;;;;;;;6.08;100.00;92130.38;5033257;28;19917;-88
2021/01/04 22:33:46;;;;;;;;;;;;;;;6.08;100.00;92138.03;5033125;28;19939;-88
2021/01/04 22:36:13;;;;;;;;;;;;;;;6.11;100.00;92133.28;5032969;28;19948;-88
2021/01/04 22:38:39;;;;;;;;;;;;;;;6.13;100.00;92143.28;5033704;28;20275;-89
2021/01/04 22:41:05;;;;;;;;;;;;;;;6.14;100.00;92143.09;5034184;28;19947;-88
2021/01/04 22:43:32;;;;;;;;;;;;;;;6.19;100.00;92154.41;5033410;28;19923;-88
2021/01/04 22:45:58;;;;;;;;;;;;;;;6.15;100.00;92149.75;5034448;28;19925;-88
2021/01/04 22:48:24;;;;;;;;;;;;;;;6.19;100.00;92152.66;5034050;28;19963;-88
2021/01/04 22:50:50;;;;;;;;;;;;;;;6.15;100.00;92154.84;5033079;28;19916;-88
2021/01/04 22:53:17;;;;;;;;;;;;;;;6.21;100.00;92160.09;5034233;28;19917;-88
2021/01/04 22:55:43;;;;;;;;;;;;;;;6.17;100.00;92164.84;5030864;28;19929;-88
2021/01/04 22:58:27;;;;;;;;;;;;;;;6.14;100.00;92166.03;5014968;28;19925;-88
2021/01/04 23:00:54;;;;;;;;;;;;;;;6.12;100.00;92165.44;5018979;28;19916;-88
2021/01/04 23:03:20;;;;;;;;;;;;;;;6.09;100.00;92165.88;5034077;28;19970;-90
2021/01/04 23:05:47;;;;;;;;;;;;;;;6.10;100.00;92171.75;5034642;28;19917;-88
2021/01/04 23:08:13;;;;;;;;;;;;;;;6.06;100.00;92173.94;5026634;28;19917;-89
2021/01/04 23:10:39;;;;;;;;;;;;;;;6.00;100.00;92183.16;5015034;28;19917;-89
2021/01/04 23:13:06;;;;;;;;;;;;;;;5.98;100.00;92187.69;5014134;28;20083;-88
2021/01/04 23:15:33;;;;;;;;;;;;;;;5.94;100.00;92185.75;5013247;28;20359;-88
2021/01/04 23:18:00;;;;;;;;;;;;;;;5.91;100.00;92193.81;5025423;28;19916;-88
2021/01/04 23:20:26;;;;;;;;;;;;;;;5.79;100.00;92202.09;5042923;28;19920;-88
2021/01/04 23:22:52;;;;;;;;;;;;;;;5.77;100.00;92193.88;5053618;28;19923;-89
2021/01/04 23:25:19;;;;;;;;;;;;;;;5.82;100.00;92195.81;5054293;28;19921;-89
2021/01/04 23:27:45;;;;;;;;;;;;;;;5.92;100.00;92197.94;5052336;28;19917;-88
2021/01/04 23:30:14;;;;;;;;;;;;;;;5.96;100.00;92192.22;5052463;28;19921;-89
2021/01/04 23:32:40;;;;;;;;;;;;;;;5.95;100.00;92200.84;5052502;28;19917;-89
2021/01/04 23:35:08;;;;;;;;;;;;;;;5.93;100.00;92194.41;5046754;28;19924;-90
2021/01/04 23:37:34;;;;;;;;;;;;;;;5.89;100.00;92207.53;5032691;28;19963;-88
2021/01/04 23:40:00;;;;;;;;;;;;;;;5.91;100.00;92206.53;5032029;28;19921;-88
2021/01/04 23:42:27;;;;;;;;;;;;;;;5.91;100.00;92209.09;5031641;28;19917;-88
2021/01/04 23:44:53;;;;;;;;;;;;;;;5.91;100.00;92214.19;5031707;28;20240;-88
2021/01/04 23:47:21;;;;;;;;;;;;;;;5.92;100.00;92220.88;5031535;28;19917;-88
2021/01/04 23:49:47;;;;;;;;;;;;;;;5.91;100.00;92214.97;5031682;28;19917;-88
2021/01/04 23:52:14;;;;;;;;;;;;;;;5.89;100.00;92214.41;5031430;28;19944;-89
2021/01/04 23:54:40;;;;;;;;;;;;;;;5.85;100.00;92218.34;5031696;28;19919;-89
2021/01/04 23:57:06;;;;;;;;;;;;;;;5.83;100.00;92228.75;5050691;28;20385;-87
2021/01/04 23:59:32;;;;;;;;;;;;;;;5.84;100.00;92230.31;5051316;28;19924;-88
